sensor_id;sensor_type;location;lat;lon;timestamp;temperature;humidity
54684;DHT22;40582;53.100;6.686;2023-03-14T00:00:28;9.20;99.90
54684;DHT22;40582;53.100;6.686;2023-03-14T00:02:54;9.20;99.90
54684;DHT22;40582;53.100;6.686;2023-03-14T00:05:19;9.20;99.90
54684;DHT22;40582;53.100;6.686;2023-03-14T00:07:45;9.20;99.90
54684;DHT22;40582;53.100;6.686;2023-03-14T00:10:13;9.20;99.90
54684;DHT22;40582;53.100;6.686;2023-03-14T00:12:40;9.20;99.90
54684;DHT22;40582;53.100;6.686;2023-03-14T00:15:07;9.30;99.90
54684;DHT22;40582;53.100;6.686;2023-03-14T00:17:34;9.20;99.90
54684;DHT22;40582;53.100;6.686;2023-03-14T00:20:01;9.30;99.90
54684;DHT22;40582;53.100;6.686;2023-03-14T00:22:41;9.30;99.90
54684;DHT22;40582;53.100;6.686;2023-03-14T00:25:09;9.40;99.90
54684;DHT22;40582;53.100;6.686;2023-03-14T00:27:35;9.50;99.90
54684;DHT22;40582;53.100;6.686;2023-03-14T00:30:02;9.60;99.90
54684;DHT22;40582;53.100;6.686;2023-03-14T00:32:28;9.70;99.90
54684;DHT22;40582;53.100;6.686;2023-03-14T00:34:53;9.70;99.90
54684;DHT22;40582;53.100;6.686;2023-03-14T00:37:19;9.80;99.90
54684;DHT22;40582;53.100;6.686;2023-03-14T00:39:45;9.80;99.90
54684;DHT22;40582;53.100;6.686;2023-03-14T00:42:10;9.80;99.90
54684;DHT22;40582;53.100;6.686;2023-03-14T00:44:36;9.80;99.90
54684;DHT22;40582;53.100;6.686;2023-03-14T00:47:02;9.80;99.90
54684;DHT22;40582;53.100;6.686;2023-03-14T00:49:27;9.90;99.90
54684;DHT22;40582;53.100;6.686;2023-03-14T00:51:53;9.90;99.90
54684;DHT22;40582;53.100;6.686;2023-03-14T00:54:19;9.90;99.90
54684;DHT22;40582;53.100;6.686;2023-03-14T00:56:45;9.90;99.90
54684;DHT22;40582;53.100;6.686;2023-03-14T00:59:11;9.90;99.90
54684;DHT22;40582;53.100;6.686;2023-03-14T01:01:38;10.00;99.90
54684;DHT22;40582;53.100;6.686;2023-03-14T01:04:04;10.00;99.90
54684;DHT22;40582;53.100;6.686;2023-03-14T01:06:30;10.00;99.90
54684;DHT22;40582;53.100;6.686;2023-03-14T01:08:57;9.90;99.90
54684;DHT22;40582;53.100;6.686;2023-03-14T01:11:26;9.90;99.90
54684;DHT22;40582;53.100;6.686;2023-03-14T01:13:52;9.90;99.90
54684;DHT22;40582;53.100;6.686;2023-03-14T01:16:19;9.90;99.90
54684;DHT22;40582;53.100;6.686;2023-03-14T01:18:46;9.90;99.90
54684;DHT22;40582;53.100;6.686;2023-03-14T01:21:17;9.90;99.90
54684;DHT22;40582;53.100;6.686;2023-03-14T01:23:44;9.90;99.90
54684;DHT22;40582;53.100;6.686;2023-03-14T01:26:12;10.00;99.90
54684;DHT22;40582;53.100;6.686;2023-03-14T01:28:38;10.00;99.90
54684;DHT22;40582;53.100;6.686;2023-03-14T01:31:06;10.00;99.90
54684;DHT22;40582;53.100;6.686;2023-03-14T01:33:32;10.00;99.90
54684;DHT22;40582;53.100;6.686;2023-03-14T01:35:58;10.00;99.90
54684;DHT22;40582;53.100;6.686;2023-03-14T01:38:24;10.10;99.90
54684;DHT22;40582;53.100;6.686;2023-03-14T01:40:50;10.20;99.90
54684;DHT22;40582;53.100;6.686;2023-03-14T01:43:18;10.20;99.90
54684;DHT22;40582;53.100;6.686;2023-03-14T01:46:12;10.20;99.90
54684;DHT22;40582;53.100;6.686;2023-03-14T01:48:55;10.30;99.90
54684;DHT22;40582;53.100;6.686;2023-03-14T01:51:30;10.30;99.90
54684;DHT22;40582;53.100;6.686;2023-03-14T01:56:50;10.20;99.90
54684;DHT22;40582;53.100;6.686;2023-03-14T01:59:18;10.20;99.90
54684;DHT22;40582;53.100;6.686;2023-03-14T02:01:46;10.20;99.90
54684;DHT22;40582;53.100;6.686;2023-03-14T02:04:12;10.20;99.90
54684;DHT22;40582;53.100;6.686;2023-03-14T02:06:49;10.20;99.90
54684;DHT22;40582;53.100;6.686;2023-03-14T02:09:16;10.10;99.90
54684;DHT22;40582;53.100;6.686;2023-03-14T02:11:42;10.10;99.90
54684;DHT22;40582;53.100;6.686;2023-03-14T02:14:17;10.10;99.90
54684;DHT22;40582;53.100;6.686;2023-03-14T02:16:46;10.10;99.90
54684;DHT22;40582;53.100;6.686;2023-03-14T02:19:13;10.10;99.90
54684;DHT22;40582;53.100;6.686;2023-03-14T02:21:54;10.10;99.90
54684;DHT22;40582;53.100;6.686;2023-03-14T02:24:32;10.10;99.90
54684;DHT22;40582;53.100;6.686;2023-03-14T02:27:12;10.10;99.90
54684;DHT22;40582;53.100;6.686;2023-03-14T02:29:45;10.10;99.90
54684;DHT22;40582;53.100;6.686;2023-03-14T02:32:11;10.10;99.90
54684;DHT22;40582;53.100;6.686;2023-03-14T02:34:38;10.00;99.90
54684;DHT22;40582;53.100;6.686;2023-03-14T02:37:05;10.00;99.90
54684;DHT22;40582;53.100;6.686;2023-03-14T02:39:36;10.00;99.90
54684;DHT22;40582;53.100;6.686;2023-03-14T02:42:03;10.00;99.90
54684;DHT22;40582;53.100;6.686;2023-03-14T02:44:29;10.00;99.90
54684;DHT22;40582;53.100;6.686;2023-03-14T02:46:55;10.00;99.90
54684;DHT22;40582;53.100;6.686;2023-03-14T02:49:21;10.00;99.90
54684;DHT22;40582;53.100;6.686;2023-03-14T02:51:47;10.00;99.90
54684;DHT22;40582;53.100;6.686;2023-03-14T02:54:15;9.90;99.90
54684;DHT22;40582;53.100;6.686;2023-03-14T02:56:41;9.90;99.90
54684;DHT22;40582;53.100;6.686;2023-03-14T02:59:06;9.90;99.90
54684;DHT22;40582;53.100;6.686;2023-03-14T03:01:33;9.80;99.90
54684;DHT22;40582;53.100;6.686;2023-03-14T03:03:59;9.80;99.90
54684;DHT22;40582;53.100;6.686;2023-03-14T03:06:25;9.80;99.90
54684;DHT22;40582;53.100;6.686;2023-03-14T03:08:51;9.80;99.90
54684;DHT22;40582;53.100;6.686;2023-03-14T03:11:17;9.90;99.90
54684;DHT22;40582;53.100;6.686;2023-03-14T03:13:43;9.90;99.90
54684;DHT22;40582;53.100;6.686;2023-03-14T03:16:08;9.90;99.90
54684;DHT22;40582;53.100;6.686;2023-03-14T03:18:34;9.90;99.90
54684;DHT22;40582;53.100;6.686;2023-03-14T03:21:02;9.90;99.90
54684;DHT22;40582;53.100;6.686;2023-03-14T03:23:29;9.90;99.90
54684;DHT22;40582;53.100;6.686;2023-03-14T03:25:55;9.90;99.90
54684;DHT22;40582;53.100;6.686;2023-03-14T03:28:21;9.90;99.90
54684;DHT22;40582;53.100;6.686;2023-03-14T03:30:46;9.90;99.90
54684;DHT22;40582;53.100;6.686;2023-03-14T03:33:13;9.90;99.90
54684;DHT22;40582;53.100;6.686;2023-03-14T03:35:47;9.80;99.90
54684;DHT22;40582;53.100;6.686;2023-03-14T03:38:13;9.80;99.90
54684;DHT22;40582;53.100;6.686;2023-03-14T03:40:39;9.80;99.90
54684;DHT22;40582;53.100;6.686;2023-03-14T03:43:05;9.70;99.90
54684;DHT22;40582;53.100;6.686;2023-03-14T03:45:30;9.70;99.90
54684;DHT22;40582;53.100;6.686;2023-03-14T03:47:56;9.70;99.90
54684;DHT22;40582;53.100;6.686;2023-03-14T03:50:22;9.70;99.90
54684;DHT22;40582;53.100;6.686;2023-03-14T03:52:47;9.70;99.90
54684;DHT22;40582;53.100;6.686;2023-03-14T03:55:13;9.60;99.90
54684;DHT22;40582;53.100;6.686;2023-03-14T03:57:39;9.60;99.90
54684;DHT22;40582;53.100;6.686;2023-03-14T04:00:05;9.60;99.90
54684;DHT22;40582;53.100;6.686;2023-03-14T04:02:31;9.60;99.90
54684;DHT22;40582;53.100;6.686;2023-03-14T04:04:57;9.60;99.90
54684;DHT22;40582;53.100;6.686;2023-03-14T04:07:23;9.60;99.90
54684;DHT22;40582;53.100;6.686;2023-03-14T04:09:49;9.60;99.90
54684;DHT22;40582;53.100;6.686;2023-03-14T04:12:14;9.60;99.90
54684;DHT22;40582;53.100;6.686;2023-03-14T04:14:40;9.50;99.90
54684;DHT22;40582;53.100;6.686;2023-03-14T04:17:06;9.50;99.90
54684;DHT22;40582;53.100;6.686;2023-03-14T04:19:32;9.50;99.90
54684;DHT22;40582;53.100;6.686;2023-03-14T04:21:58;9.50;99.90
54684;DHT22;40582;53.100;6.686;2023-03-14T04:24:24;9.50;99.90
54684;DHT22;40582;53.100;6.686;2023-03-14T04:26:49;9.50;99.90
54684;DHT22;40582;53.100;6.686;2023-03-14T04:29:15;9.50;99.90
54684;DHT22;40582;53.100;6.686;2023-03-14T04:31:41;9.50;99.90
54684;DHT22;40582;53.100;6.686;2023-03-14T04:34:07;9.50;99.90
54684;DHT22;40582;53.100;6.686;2023-03-14T04:36:33;9.40;99.90
54684;DHT22;40582;53.100;6.686;2023-03-14T04:38:58;9.40;99.90
54684;DHT22;40582;53.100;6.686;2023-03-14T04:41:24;9.40;99.90
54684;DHT22;40582;53.100;6.686;2023-03-14T04:43:50;9.40;99.90
54684;DHT22;40582;53.100;6.686;2023-03-14T04:46:16;9.40;99.90
54684;DHT22;40582;53.100;6.686;2023-03-14T04:48:42;9.40;99.90
54684;DHT22;40582;53.100;6.686;2023-03-14T04:51:07;9.30;99.90
54684;DHT22;40582;53.100;6.686;2023-03-14T04:53:33;9.30;99.90
54684;DHT22;40582;53.100;6.686;2023-03-14T04:55:59;9.30;99.90
54684;DHT22;40582;53.100;6.686;2023-03-14T04:58:25;9.30;99.90
54684;DHT22;40582;53.100;6.686;2023-03-14T05:00:51;9.30;99.90
54684;DHT22;40582;53.100;6.686;2023-03-14T05:03:18;9.30;99.90
54684;DHT22;40582;53.100;6.686;2023-03-14T05:05:44;9.30;99.90
54684;DHT22;40582;53.100;6.686;2023-03-14T05:08:10;9.30;99.90
54684;DHT22;40582;53.100;6.686;2023-03-14T05:10:36;9.30;99.90
54684;DHT22;40582;53.100;6.686;2023-03-14T05:13:02;9.30;99.90
54684;DHT22;40582;53.100;6.686;2023-03-14T05:15:27;9.30;99.90
54684;DHT22;40582;53.100;6.686;2023-03-14T05:17:53;9.20;99.90
54684;DHT22;40582;53.100;6.686;2023-03-14T05:20:20;9.20;99.90
54684;DHT22;40582;53.100;6.686;2023-03-14T05:22:46;9.20;99.90
54684;DHT22;40582;53.100;6.686;2023-03-14T05:25:11;9.20;99.90
54684;DHT22;40582;53.100;6.686;2023-03-14T05:27:37;9.20;99.90
54684;DHT22;40582;53.100;6.686;2023-03-14T05:30:04;9.20;99.90
54684;DHT22;40582;53.100;6.686;2023-03-14T05:32:30;9.20;99.90
54684;DHT22;40582;53.100;6.686;2023-03-14T05:34:56;9.30;99.90
54684;DHT22;40582;53.100;6.686;2023-03-14T05:37:25;9.20;99.90
54684;DHT22;40582;53.100;6.686;2023-03-14T05:39:51;9.20;99.90
54684;DHT22;40582;53.100;6.686;2023-03-14T05:42:17;9.20;99.90
54684;DHT22;40582;53.100;6.686;2023-03-14T05:44:43;9.20;99.90
54684;DHT22;40582;53.100;6.686;2023-03-14T05:47:08;9.20;99.90
54684;DHT22;40582;53.100;6.686;2023-03-14T05:49:34;9.20;99.90
54684;DHT22;40582;53.100;6.686;2023-03-14T05:51:59;9.20;99.90
54684;DHT22;40582;53.100;6.686;2023-03-14T05:54:25;9.20;99.90
54684;DHT22;40582;53.100;6.686;2023-03-14T05:56:51;9.20;99.90
54684;DHT22;40582;53.100;6.686;2023-03-14T05:59:16;9.20;99.90
54684;DHT22;40582;53.100;6.686;2023-03-14T06:01:42;9.20;99.90
54684;DHT22;40582;53.100;6.686;2023-03-14T06:04:08;9.20;99.90
54684;DHT22;40582;53.100;6.686;2023-03-14T06:06:33;9.20;99.90
54684;DHT22;40582;53.100;6.686;2023-03-14T06:08:59;9.10;99.90
54684;DHT22;40582;53.100;6.686;2023-03-14T06:11:25;9.10;99.90
54684;DHT22;40582;53.100;6.686;2023-03-14T06:13:51;9.10;99.90
54684;DHT22;40582;53.100;6.686;2023-03-14T06:16:17;9.20;99.90
54684;DHT22;40582;53.100;6.686;2023-03-14T06:18:42;9.10;99.90
54684;DHT22;40582;53.100;6.686;2023-03-14T06:21:08;9.10;99.90
54684;DHT22;40582;53.100;6.686;2023-03-14T06:23:34;9.10;99.90
54684;DHT22;40582;53.100;6.686;2023-03-14T06:25:59;9.10;99.90
54684;DHT22;40582;53.100;6.686;2023-03-14T06:28:26;9.10;99.90
54684;DHT22;40582;53.100;6.686;2023-03-14T06:30:52;9.10;99.90
54684;DHT22;40582;53.100;6.686;2023-03-14T06:33:18;9.10;99.90
54684;DHT22;40582;53.100;6.686;2023-03-14T06:35:44;9.10;99.90
54684;DHT22;40582;53.100;6.686;2023-03-14T06:38:09;9.10;99.90
54684;DHT22;40582;53.100;6.686;2023-03-14T06:40:35;9.10;99.90
54684;DHT22;40582;53.100;6.686;2023-03-14T06:43:01;9.10;99.90
54684;DHT22;40582;53.100;6.686;2023-03-14T06:45:26;9.10;99.90
54684;DHT22;40582;53.100;6.686;2023-03-14T06:47:52;9.10;99.90
54684;DHT22;40582;53.100;6.686;2023-03-14T06:50:18;9.10;99.90
54684;DHT22;40582;53.100;6.686;2023-03-14T06:52:43;9.10;99.90
54684;DHT22;40582;53.100;6.686;2023-03-14T06:55:14;9.00;99.90
54684;DHT22;40582;53.100;6.686;2023-03-14T06:57:40;8.80;99.90
54684;DHT22;40582;53.100;6.686;2023-03-14T07:00:06;8.60;99.90
54684;DHT22;40582;53.100;6.686;2023-03-14T07:02:32;8.40;99.90
54684;DHT22;40582;53.100;6.686;2023-03-14T07:04:58;8.20;99.90
54684;DHT22;40582;53.100;6.686;2023-03-14T07:07:23;8.10;99.90
54684;DHT22;40582;53.100;6.686;2023-03-14T07:09:49;8.10;99.90
54684;DHT22;40582;53.100;6.686;2023-03-14T07:12:15;8.00;99.90
54684;DHT22;40582;53.100;6.686;2023-03-14T07:14:40;7.90;99.90
54684;DHT22;40582;53.100;6.686;2023-03-14T07:17:06;7.90;99.90
54684;DHT22;40582;53.100;6.686;2023-03-14T07:19:31;7.70;99.90
54684;DHT22;40582;53.100;6.686;2023-03-14T07:21:57;7.60;99.90
54684;DHT22;40582;53.100;6.686;2023-03-14T07:24:23;7.50;99.90
54684;DHT22;40582;53.100;6.686;2023-03-14T07:26:48;7.40;99.90
54684;DHT22;40582;53.100;6.686;2023-03-14T07:29:14;7.30;99.90
54684;DHT22;40582;53.100;6.686;2023-03-14T07:31:40;7.10;99.90
54684;DHT22;40582;53.100;6.686;2023-03-14T07:34:05;7.10;99.90
54684;DHT22;40582;53.100;6.686;2023-03-14T07:36:31;6.90;99.90
54684;DHT22;40582;53.100;6.686;2023-03-14T07:38:57;6.80;99.90
54684;DHT22;40582;53.100;6.686;2023-03-14T07:41:23;6.60;99.90
54684;DHT22;40582;53.100;6.686;2023-03-14T07:43:49;6.50;99.90
54684;DHT22;40582;53.100;6.686;2023-03-14T07:46:15;6.50;99.90
54684;DHT22;40582;53.100;6.686;2023-03-14T07:48:41;6.70;99.90
54684;DHT22;40582;53.100;6.686;2023-03-14T07:51:07;6.50;99.90
54684;DHT22;40582;53.100;6.686;2023-03-14T07:53:33;6.50;99.90
54684;DHT22;40582;53.100;6.686;2023-03-14T07:55:58;6.40;99.90
54684;DHT22;40582;53.100;6.686;2023-03-14T07:58:24;6.40;99.90
54684;DHT22;40582;53.100;6.686;2023-03-14T08:00:51;6.40;99.90
54684;DHT22;40582;53.100;6.686;2023-03-14T08:03:17;6.30;99.90
54684;DHT22;40582;53.100;6.686;2023-03-14T08:05:43;6.20;99.90
54684;DHT22;40582;53.100;6.686;2023-03-14T08:08:09;6.20;99.90
54684;DHT22;40582;53.100;6.686;2023-03-14T08:10:35;6.10;99.90
54684;DHT22;40582;53.100;6.686;2023-03-14T08:13:01;6.10;99.90
54684;DHT22;40582;53.100;6.686;2023-03-14T08:15:29;6.20;99.90
54684;DHT22;40582;53.100;6.686;2023-03-14T08:17:54;6.20;99.90
54684;DHT22;40582;53.100;6.686;2023-03-14T08:20:22;6.20;99.90
54684;DHT22;40582;53.100;6.686;2023-03-14T08:22:48;6.20;99.90
54684;DHT22;40582;53.100;6.686;2023-03-14T08:25:14;6.30;99.90
54684;DHT22;40582;53.100;6.686;2023-03-14T08:27:40;6.40;99.90
54684;DHT22;40582;53.100;6.686;2023-03-14T08:30:10;6.50;99.90
54684;DHT22;40582;53.100;6.686;2023-03-14T08:32:36;6.60;99.90
54684;DHT22;40582;53.100;6.686;2023-03-14T08:35:02;6.70;99.90
54684;DHT22;40582;53.100;6.686;2023-03-14T08:37:28;6.80;99.90
54684;DHT22;40582;53.100;6.686;2023-03-14T08:39:54;6.10;99.90
54684;DHT22;40582;53.100;6.686;2023-03-14T08:42:19;7.10;99.90
54684;DHT22;40582;53.100;6.686;2023-03-14T08:44:45;7.20;99.90
54684;DHT22;40582;53.100;6.686;2023-03-14T08:47:11;7.50;99.90
54684;DHT22;40582;53.100;6.686;2023-03-14T08:49:38;7.60;99.90
54684;DHT22;40582;53.100;6.686;2023-03-14T08:52:04;7.60;99.90
54684;DHT22;40582;53.100;6.686;2023-03-14T08:54:30;7.40;99.90
54684;DHT22;40582;53.100;6.686;2023-03-14T08:56:57;6.70;99.90
54684;DHT22;40582;53.100;6.686;2023-03-14T08:59:22;7.40;99.90
54684;DHT22;40582;53.100;6.686;2023-03-14T09:01:48;7.50;99.90
54684;DHT22;40582;53.100;6.686;2023-03-14T09:04:14;7.60;99.90
54684;DHT22;40582;53.100;6.686;2023-03-14T09:06:40;7.80;99.90
54684;DHT22;40582;53.100;6.686;2023-03-14T09:09:06;7.90;99.90
54684;DHT22;40582;53.100;6.686;2023-03-14T09:11:32;8.00;99.90
54684;DHT22;40582;53.100;6.686;2023-03-14T09:13:58;8.10;99.90
54684;DHT22;40582;53.100;6.686;2023-03-14T09:16:24;8.20;99.90
54684;DHT22;40582;53.100;6.686;2023-03-14T09:18:50;8.30;99.90
54684;DHT22;40582;53.100;6.686;2023-03-14T09:21:18;8.40;99.90
54684;DHT22;40582;53.100;6.686;2023-03-14T09:23:44;8.60;99.90
54684;DHT22;40582;53.100;6.686;2023-03-14T09:26:11;8.70;99.90
54684;DHT22;40582;53.100;6.686;2023-03-14T09:28:37;8.90;99.90
54684;DHT22;40582;53.100;6.686;2023-03-14T09:31:07;9.00;99.90
54684;DHT22;40582;53.100;6.686;2023-03-14T09:33:33;9.10;99.90
54684;DHT22;40582;53.100;6.686;2023-03-14T09:35:59;9.10;99.90
54684;DHT22;40582;53.100;6.686;2023-03-14T09:38:25;9.10;99.90
54684;DHT22;40582;53.100;6.686;2023-03-14T09:40:52;9.00;99.90
54684;DHT22;40582;53.100;6.686;2023-03-14T09:43:19;8.90;99.90
54684;DHT22;40582;53.100;6.686;2023-03-14T09:45:48;8.80;99.90
54684;DHT22;40582;53.100;6.686;2023-03-14T09:48:21;8.70;99.90
54684;DHT22;40582;53.100;6.686;2023-03-14T09:50:54;8.70;99.90
54684;DHT22;40582;53.100;6.686;2023-03-14T09:53:27;8.50;99.90
54684;DHT22;40582;53.100;6.686;2023-03-14T09:55:54;8.40;99.90
54684;DHT22;40582;53.100;6.686;2023-03-14T09:58:24;8.30;99.90
54684;DHT22;40582;53.100;6.686;2023-03-14T10:00:51;8.40;99.90
54684;DHT22;40582;53.100;6.686;2023-03-14T10:03:34;8.50;99.90
54684;DHT22;40582;53.100;6.686;2023-03-14T10:06:00;8.60;99.90
54684;DHT22;40582;53.100;6.686;2023-03-14T10:08:26;8.70;99.90
54684;DHT22;40582;53.100;6.686;2023-03-14T10:10:53;8.80;99.90
54684;DHT22;40582;53.100;6.686;2023-03-14T10:13:23;8.90;99.90
54684;DHT22;40582;53.100;6.686;2023-03-14T10:16:01;9.00;99.90
54684;DHT22;40582;53.100;6.686;2023-03-14T10:18:30;9.20;99.90
54684;DHT22;40582;53.100;6.686;2023-03-14T10:21:09;9.20;99.90
54684;DHT22;40582;53.100;6.686;2023-03-14T10:23:42;9.10;99.90
54684;DHT22;40582;53.100;6.686;2023-03-14T10:26:23;9.00;99.90
54684;DHT22;40582;53.100;6.686;2023-03-14T10:28:54;9.00;99.90
54684;DHT22;40582;53.100;6.686;2023-03-14T10:31:26;9.00;99.90
54684;DHT22;40582;53.100;6.686;2023-03-14T10:34:01;9.10;99.90
54684;DHT22;40582;53.100;6.686;2023-03-14T10:36:28;9.10;99.90
54684;DHT22;40582;53.100;6.686;2023-03-14T10:39:22;9.10;99.90
54684;DHT22;40582;53.100;6.686;2023-03-14T10:41:52;9.20;99.90
54684;DHT22;40582;53.100;6.686;2023-03-14T10:44:22;9.40;99.90
54684;DHT22;40582;53.100;6.686;2023-03-14T10:47:00;9.50;99.90
54684;DHT22;40582;53.100;6.686;2023-03-14T10:49:36;9.60;99.90
54684;DHT22;40582;53.100;6.686;2023-03-14T10:54:34;9.60;99.90
54684;DHT22;40582;53.100;6.686;2023-03-14T10:57:01;9.60;99.90
54684;DHT22;40582;53.100;6.686;2023-03-14T10:59:36;9.60;99.90
54684;DHT22;40582;53.100;6.686;2023-03-14T11:02:15;9.50;99.90
54684;DHT22;40582;53.100;6.686;2023-03-14T11:05:20;9.60;99.90
54684;DHT22;40582;53.100;6.686;2023-03-14T11:07:47;9.80;99.90
54684;DHT22;40582;53.100;6.686;2023-03-14T11:10:32;10.00;99.90
54684;DHT22;40582;53.100;6.686;2023-03-14T11:28:58;9.70;99.90
54684;DHT22;40582;53.100;6.686;2023-03-14T11:31:32;9.80;99.90
54684;DHT22;40582;53.100;6.686;2023-03-14T11:34:19;10.20;99.90
54684;DHT22;40582;53.100;6.686;2023-03-14T11:39:17;10.20;99.90
54684;DHT22;40582;53.100;6.686;2023-03-14T11:41:54;10.10;99.90
54684;DHT22;40582;53.100;6.686;2023-03-14T11:44:24;9.80;99.90
54684;DHT22;40582;53.100;6.686;2023-03-14T11:49:50;9.70;99.90
54684;DHT22;40582;53.100;6.686;2023-03-14T11:52:25;10.30;99.90
54684;DHT22;40582;53.100;6.686;2023-03-14T11:57:38;10.70;99.90
54684;DHT22;40582;53.100;6.686;2023-03-14T12:00:18;10.50;99.90
54684;DHT22;40582;53.100;6.686;2023-03-14T12:06:28;10.30;99.90
54684;DHT22;40582;53.100;6.686;2023-03-14T12:08:43;10.10;99.90
54684;DHT22;40582;53.100;6.686;2023-03-14T12:13:57;10.30;99.90
54684;DHT22;40582;53.100;6.686;2023-03-14T12:18:50;10.20;99.90
54684;DHT22;40582;53.100;6.686;2023-03-14T12:21:16;10.30;99.90
54684;DHT22;40582;53.100;6.686;2023-03-14T12:23:52;10.20;99.90
54684;DHT22;40582;53.100;6.686;2023-03-14T12:26:19;10.20;99.90
54684;DHT22;40582;53.100;6.686;2023-03-14T12:31:43;10.20;99.90
54684;DHT22;40582;53.100;6.686;2023-03-14T12:39:37;10.30;99.90
54684;DHT22;40582;53.100;6.686;2023-03-14T12:44:53;10.30;99.90
54684;DHT22;40582;53.100;6.686;2023-03-14T12:50:20;10.30;99.90
54684;DHT22;40582;53.100;6.686;2023-03-14T12:55:48;10.20;99.90
54684;DHT22;40582;53.100;6.686;2023-03-14T13:00:41;10.00;99.90
54684;DHT22;40582;53.100;6.686;2023-03-14T13:03:22;9.90;99.90
54684;DHT22;40582;53.100;6.686;2023-03-14T13:06:04;9.80;99.90
54684;DHT22;40582;53.100;6.686;2023-03-14T13:08:41;9.90;99.90
54684;DHT22;40582;53.100;6.686;2023-03-14T13:11:12;10.00;99.90
54684;DHT22;40582;53.100;6.686;2023-03-14T13:13:57;10.00;99.90
54684;DHT22;40582;53.100;6.686;2023-03-14T13:16:24;9.90;99.90
54684;DHT22;40582;53.100;6.686;2023-03-14T13:19:03;9.70;99.90
54684;DHT22;40582;53.100;6.686;2023-03-14T13:21:34;9.60;99.90
54684;DHT22;40582;53.100;6.686;2023-03-14T13:24:06;9.50;99.90
54684;DHT22;40582;53.100;6.686;2023-03-14T13:26:39;9.40;99.90
54684;DHT22;40582;53.100;6.686;2023-03-14T13:29:18;9.20;99.90
54684;DHT22;40582;53.100;6.686;2023-03-14T13:31:52;9.00;99.90
54684;DHT22;40582;53.100;6.686;2023-03-14T13:34:18;9.00;99.90
54684;DHT22;40582;53.100;6.686;2023-03-14T13:36:44;9.00;99.90
54684;DHT22;40582;53.100;6.686;2023-03-14T13:39:13;9.00;99.90
54684;DHT22;40582;53.100;6.686;2023-03-14T13:41:40;9.00;99.90
54684;DHT22;40582;53.100;6.686;2023-03-14T13:44:18;9.00;99.90
54684;DHT22;40582;53.100;6.686;2023-03-14T13:46:47;9.00;99.90
54684;DHT22;40582;53.100;6.686;2023-03-14T13:49:22;9.10;99.90
54684;DHT22;40582;53.100;6.686;2023-03-14T13:51:48;9.30;99.90
54684;DHT22;40582;53.100;6.686;2023-03-14T13:54:16;9.30;99.90
54684;DHT22;40582;53.100;6.686;2023-03-14T13:56:42;9.40;99.90
54684;DHT22;40582;53.100;6.686;2023-03-14T13:59:24;9.50;99.90
54684;DHT22;40582;53.100;6.686;2023-03-14T14:01:50;9.50;99.90
54684;DHT22;40582;53.100;6.686;2023-03-14T14:04:22;9.70;99.90
54684;DHT22;40582;53.100;6.686;2023-03-14T14:06:54;9.50;99.40
54684;DHT22;40582;53.100;6.686;2023-03-14T14:09:24;9.30;99.90
54684;DHT22;40582;53.100;6.686;2023-03-14T14:11:56;9.30;99.70
54684;DHT22;40582;53.100;6.686;2023-03-14T14:14:32;9.40;99.10
54684;DHT22;40582;53.100;6.686;2023-03-14T14:17:00;9.60;99.50
54684;DHT22;40582;53.100;6.686;2023-03-14T14:19:28;9.60;99.20
54684;DHT22;40582;53.100;6.686;2023-03-14T14:21:56;9.40;99.30
54684;DHT22;40582;53.100;6.686;2023-03-14T14:24:24;9.20;99.40
54684;DHT22;40582;53.100;6.686;2023-03-14T14:26:58;9.00;99.30
54684;DHT22;40582;53.100;6.686;2023-03-14T14:29:32;8.90;99.60
54684;DHT22;40582;53.100;6.686;2023-03-14T14:34:44;8.50;98.60
54684;DHT22;40582;53.100;6.686;2023-03-14T14:37:23;8.40;98.10
54684;DHT22;40582;53.100;6.686;2023-03-14T14:39:52;8.50;98.40
54684;DHT22;40582;53.100;6.686;2023-03-14T14:42:21;8.50;98.40
54684;DHT22;40582;53.100;6.686;2023-03-14T14:44:48;8.60;98.70
54684;DHT22;40582;53.100;6.686;2023-03-14T14:47:19;8.70;98.70
54684;DHT22;40582;53.100;6.686;2023-03-14T14:49:47;8.70;99.00
54684;DHT22;40582;53.100;6.686;2023-03-14T14:52:19;8.70;98.90
54684;DHT22;40582;53.100;6.686;2023-03-14T14:54:48;8.70;99.20
54684;DHT22;40582;53.100;6.686;2023-03-14T14:57:22;8.60;99.60
54684;DHT22;40582;53.100;6.686;2023-03-14T14:59:50;8.70;99.90
54684;DHT22;40582;53.100;6.686;2023-03-14T15:02:39;8.80;99.90
54684;DHT22;40582;53.100;6.686;2023-03-14T15:05:17;8.90;99.90
54684;DHT22;40582;53.100;6.686;2023-03-14T15:07:43;9.00;99.90
54684;DHT22;40582;53.100;6.686;2023-03-14T15:10:17;9.10;99.90
54684;DHT22;40582;53.100;6.686;2023-03-14T15:12:43;9.20;99.90
54684;DHT22;40582;53.100;6.686;2023-03-14T15:15:10;9.20;99.90
54684;DHT22;40582;53.100;6.686;2023-03-14T15:17:36;9.00;99.90
54684;DHT22;40582;53.100;6.686;2023-03-14T15:20:04;8.80;99.90
54684;DHT22;40582;53.100;6.686;2023-03-14T15:22:30;8.60;99.90
54684;DHT22;40582;53.100;6.686;2023-03-14T15:24:56;8.30;99.90
54684;DHT22;40582;53.100;6.686;2023-03-14T15:27:22;8.20;99.60
54684;DHT22;40582;53.100;6.686;2023-03-14T15:29:48;8.00;99.70
54684;DHT22;40582;53.100;6.686;2023-03-14T15:32:16;7.80;99.80
54684;DHT22;40582;53.100;6.686;2023-03-14T15:34:43;7.60;99.90
54684;DHT22;40582;53.100;6.686;2023-03-14T15:37:12;7.40;99.90
54684;DHT22;40582;53.100;6.686;2023-03-14T15:39:39;7.20;99.90
54684;DHT22;40582;53.100;6.686;2023-03-14T15:42:05;7.20;99.90
54684;DHT22;40582;53.100;6.686;2023-03-14T15:44:31;7.00;99.90
54684;DHT22;40582;53.100;6.686;2023-03-14T15:46:56;7.00;99.90
54684;DHT22;40582;53.100;6.686;2023-03-14T15:49:22;6.90;99.90
54684;DHT22;40582;53.100;6.686;2023-03-14T15:51:48;6.80;99.90
54684;DHT22;40582;53.100;6.686;2023-03-14T15:54:14;6.70;99.90
54684;DHT22;40582;53.100;6.686;2023-03-14T15:56:40;6.60;99.90
54684;DHT22;40582;53.100;6.686;2023-03-14T15:59:05;6.60;99.90
54684;DHT22;40582;53.100;6.686;2023-03-14T16:01:31;6.60;99.90
54684;DHT22;40582;53.100;6.686;2023-03-14T16:03:57;6.60;99.90
54684;DHT22;40582;53.100;6.686;2023-03-14T16:06:22;6.60;99.90
54684;DHT22;40582;53.100;6.686;2023-03-14T16:08:48;6.60;99.90
54684;DHT22;40582;53.100;6.686;2023-03-14T16:11:14;6.60;99.90
54684;DHT22;40582;53.100;6.686;2023-03-14T16:13:40;6.60;99.90
54684;DHT22;40582;53.100;6.686;2023-03-14T16:16:07;6.50;99.90
54684;DHT22;40582;53.100;6.686;2023-03-14T16:18:35;6.50;99.90
54684;DHT22;40582;53.100;6.686;2023-03-14T16:21:12;6.50;99.90
54684;DHT22;40582;53.100;6.686;2023-03-14T16:23:37;6.50;99.90
54684;DHT22;40582;53.100;6.686;2023-03-14T16:26:07;6.50;99.90
54684;DHT22;40582;53.100;6.686;2023-03-14T16:28:33;6.50;99.90
54684;DHT22;40582;53.100;6.686;2023-03-14T16:31:01;6.40;99.90
54684;DHT22;40582;53.100;6.686;2023-03-14T16:33:31;6.40;99.90
54684;DHT22;40582;53.100;6.686;2023-03-14T16:35:59;6.40;99.90
54684;DHT22;40582;53.100;6.686;2023-03-14T16:38:34;6.50;99.90
54684;DHT22;40582;53.100;6.686;2023-03-14T16:41:03;6.40;99.90
54684;DHT22;40582;53.100;6.686;2023-03-14T16:43:29;6.40;99.90
54684;DHT22;40582;53.100;6.686;2023-03-14T16:45:59;6.50;99.90
54684;DHT22;40582;53.100;6.686;2023-03-14T16:48:26;6.60;99.90
54684;DHT22;40582;53.100;6.686;2023-03-14T16:50:52;6.60;99.90